createdAt,value
2018-12-12T05:05:22.221Z,18.80
2018-12-12T05:10:23.394Z,18.80
2018-12-12T05:12:49.610Z,18.20
2018-12-12T05:15:16.572Z,17.90
2018-12-12T05:17:42.775Z,17.60
2018-12-12T05:20:08.973Z,17.50
2018-12-12T05:22:36.367Z,17.40
2018-12-12T05:25:02.986Z,17.40
2018-12-12T05:27:30.126Z,17.60
2018-12-12T05:29:56.365Z,17.90
2018-12-12T05:32:22.594Z,18.20
2018-12-12T05:34:48.802Z,18.30
2018-12-12T05:37:15.406Z,18.60
2018-12-12T05:39:41.958Z,18.70
2018-12-12T05:42:08.800Z,18.80
2018-12-12T05:44:35.709Z,18.80
2018-12-12T05:47:02.621Z,18.90
2018-12-12T05:49:28.826Z,18.90
2018-12-12T05:51:55.152Z,19.00
2018-12-12T05:54:21.592Z,19.00
2018-12-12T05:56:52.322Z,19.00
2018-12-12T05:59:16.092Z,19.10
2018-12-12T06:01:42.305Z,19.10
2018-12-12T06:04:08.507Z,19.10
2018-12-12T06:06:35.358Z,19.10
2018-12-12T06:09:02.338Z,19.00
2018-12-12T06:11:29.140Z,19.00
2018-12-12T06:13:55.377Z,19.00
2018-12-12T06:16:22.243Z,19.00
2018-12-12T06:18:48.485Z,19.00
2018-12-12T06:21:14.707Z,19.00
2018-12-12T06:23:40.933Z,19.00
2018-12-12T06:26:07.869Z,19.00
2018-12-12T06:28:34.142Z,19.00
2018-12-12T06:31:00.648Z,19.00
2018-12-12T06:33:27.331Z,19.00
2018-12-12T06:35:54.192Z,19.00
2018-12-12T06:38:20.424Z,18.90
2018-12-12T06:40:47.243Z,18.90
2018-12-12T06:43:13.445Z,18.90
2018-12-12T06:45:39.673Z,18.90
2018-12-12T06:48:07.033Z,18.90
2018-12-12T06:50:33.254Z,18.90
2018-12-12T06:52:59.512Z,18.90
2018-12-12T06:55:26.356Z,18.90
2018-12-12T06:57:52.574Z,18.90
2018-12-12T07:00:18.821Z,18.90
2018-12-12T07:02:46.165Z,18.90
2018-12-12T07:05:12.649Z,18.90
2018-12-12T07:07:38.879Z,19.00
2018-12-12T07:10:05.106Z,19.00
2018-12-12T07:12:32.153Z,19.00
2018-12-12T07:14:58.689Z,19.00
2018-12-12T07:17:25.893Z,19.00
2018-12-12T07:19:52.537Z,19.00
2018-12-12T07:22:19.420Z,19.00
2018-12-12T07:24:45.704Z,19.00
2018-12-12T07:27:12.909Z,19.00
2018-12-12T07:29:39.133Z,19.00
2018-12-12T07:32:05.359Z,19.00
2018-12-12T07:34:32.593Z,19.00
2018-12-12T07:36:59.554Z,19.00
2018-12-12T07:39:25.834Z,19.00
2018-12-12T07:41:52.070Z,19.00
2018-12-12T07:44:18.557Z,19.00
2018-12-12T07:46:44.768Z,18.90
2018-12-12T07:49:10.975Z,18.90
2018-12-12T07:51:37.989Z,18.90
2018-12-12T07:54:05.209Z,18.90
2018-12-12T07:56:31.584Z,18.90
2018-12-12T07:58:57.816Z,18.90
2018-12-12T08:01:24.044Z,18.90
2018-12-12T08:03:51.084Z,18.90
2018-12-12T08:06:17.818Z,18.90
2018-12-12T08:08:44.434Z,18.90
2018-12-12T08:11:10.658Z,18.90
2018-12-12T08:13:37.603Z,18.90
2018-12-12T08:16:03.880Z,18.90
2018-12-12T08:18:30.091Z,18.90
2018-12-12T08:20:57.256Z,18.90
2018-12-12T08:23:24.414Z,19.00
2018-12-12T08:25:51.022Z,19.00
2018-12-12T08:28:17.368Z,19.00
2018-12-12T08:30:44.226Z,19.00
2018-12-12T08:33:11.362Z,19.10
2018-12-12T08:35:37.930Z,19.10
2018-12-12T08:38:04.130Z,19.10
2018-12-12T08:40:30.376Z,19.10
2018-12-12T08:42:57.353Z,19.10
2018-12-12T08:45:23.939Z,19.10
2018-12-12T08:47:50.173Z,19.10
2018-12-12T08:50:16.403Z,19.10
2018-12-12T08:52:42.736Z,19.10
2018-12-12T08:55:09.786Z,19.10
2018-12-12T08:57:36.017Z,19.10
2018-12-12T09:00:03.367Z,19.10
2018-12-12T09:02:30.165Z,19.10
2018-12-12T09:04:56.409Z,19.10
2018-12-12T09:07:23.334Z,19.00
2018-12-12T09:09:49.652Z,19.00
2018-12-12T09:12:15.873Z,19.00
2018-12-12T09:14:42.847Z,19.00
2018-12-12T09:17:09.887Z,19.00
2018-12-12T09:19:37.298Z,19.00
2018-12-12T09:22:03.498Z,19.00
2018-12-12T09:24:29.756Z,19.00
2018-12-12T09:26:56.609Z,19.00
2018-12-12T09:29:22.838Z,18.90
2018-12-12T09:31:49.137Z,18.90
2018-12-12T09:34:15.357Z,18.90
2018-12-12T09:36:42.204Z,18.90
2018-12-12T09:39:09.073Z,19.00
2018-12-12T09:41:36.412Z,18.90
2018-12-12T09:44:02.658Z,19.00
2018-12-12T09:46:28.877Z,19.00
2018-12-12T09:48:55.156Z,19.00
2018-12-12T09:51:21.737Z,19.00
2018-12-12T09:53:47.969Z,19.00
2018-12-12T09:56:14.667Z,19.00
2018-12-12T09:58:41.203Z,19.00
2018-12-12T10:01:07.468Z,19.00
2018-12-12T10:03:33.715Z,19.00
2018-12-12T10:05:59.921Z,19.00
2018-12-12T10:08:26.149Z,19.00
2018-12-12T10:10:52.721Z,19.00
2018-12-12T10:13:19.073Z,19.00
2018-12-12T10:15:45.578Z,19.00
2018-12-12T10:18:11.777Z,19.00
2018-12-12T10:20:39.044Z,19.00
2018-12-12T10:23:05.577Z,19.00
2018-12-12T10:25:31.825Z,19.00
2018-12-12T10:27:58.064Z,19.00
2018-12-12T10:30:25.025Z,19.00
2018-12-12T10:32:51.252Z,19.00
2018-12-12T10:35:17.893Z,18.90
2018-12-12T10:40:16.647Z,18.90
2018-12-12T10:42:42.927Z,18.90
2018-12-12T10:45:10.148Z,18.90
2018-12-12T10:47:36.372Z,18.90
2018-12-12T10:50:02.596Z,18.90
2018-12-12T10:52:28.957Z,18.90
2018-12-12T10:54:55.778Z,18.90
2018-12-12T10:57:23.153Z,18.90
2018-12-12T10:59:49.394Z,18.90
2018-12-12T11:02:15.644Z,18.90
2018-12-12T11:04:41.846Z,18.90
2018-12-12T11:07:08.398Z,18.90
2018-12-12T11:09:34.661Z,18.90
2018-12-12T11:12:00.913Z,18.90
2018-12-12T11:14:27.272Z,19.00
2018-12-12T11:16:53.487Z,19.00
2018-12-12T11:19:20.012Z,19.00
2018-12-12T11:21:46.981Z,19.00
2018-12-12T11:24:14.323Z,19.00
2018-12-12T11:26:41.099Z,19.00
2018-12-12T11:29:07.901Z,19.00
2018-12-12T11:31:34.812Z,19.00
2018-12-12T11:34:01.105Z,19.00
2018-12-12T11:36:27.321Z,19.00
2018-12-12T11:38:53.554Z,19.00
2018-12-12T11:41:20.770Z,19.00
2018-12-12T11:43:46.981Z,19.00
2018-12-12T11:46:13.186Z,19.00
2018-12-12T11:48:40.133Z,19.00
2018-12-12T11:51:06.415Z,19.00
2018-12-12T11:53:32.638Z,19.00
2018-12-12T11:55:59.657Z,19.00
2018-12-12T11:58:26.248Z,19.00
2018-12-12T12:00:52.473Z,19.00
2018-12-12T12:03:18.676Z,19.00
2018-12-12T12:05:44.908Z,19.00
2018-12-12T12:08:11.136Z,19.00
2018-12-12T12:10:37.367Z,18.90
2018-12-12T12:13:03.595Z,18.90
2018-12-12T12:15:29.844Z,18.90
2018-12-12T12:17:56.771Z,18.90
2018-12-12T12:20:23.272Z,18.90
2018-12-12T12:22:49.474Z,18.90
2018-12-12T12:25:15.672Z,18.90
2018-12-12T12:27:41.916Z,18.90
2018-12-12T12:30:08.112Z,18.90
2018-12-12T12:32:34.353Z,18.90
2018-12-12T12:35:00.681Z,18.90
2018-12-12T12:37:27.248Z,18.90
2018-12-12T12:39:53.454Z,18.90
2018-12-12T12:42:19.672Z,18.90
2018-12-12T12:44:46.476Z,18.90
2018-12-12T12:47:12.684Z,19.00
2018-12-12T12:49:38.926Z,19.00
2018-12-12T12:52:05.853Z,18.90
2018-12-12T12:54:32.076Z,18.90
2018-12-12T12:56:58.300Z,18.90
2018-12-12T12:59:24.568Z,18.90
2018-12-12T13:01:51.525Z,18.90
2018-12-12T13:04:18.488Z,18.90
2018-12-12T13:06:44.754Z,18.90
2018-12-12T13:09:11.065Z,18.90
2018-12-12T13:11:38.000Z,18.90
2018-12-12T13:14:04.284Z,18.90
2018-12-12T13:16:30.503Z,18.90
2018-12-12T13:18:56.734Z,18.90
2018-12-12T13:21:23.023Z,18.80
2018-12-12T13:23:49.249Z,18.80
2018-12-12T13:26:15.482Z,18.80
2018-12-12T13:28:41.731Z,18.80
2018-12-12T13:31:08.638Z,18.80
2018-12-12T13:33:34.879Z,18.80
2018-12-12T13:36:01.378Z,18.80
2018-12-12T13:38:28.339Z,18.80
2018-12-12T13:40:55.000Z,18.80
2018-12-12T13:43:22.176Z,18.80
2018-12-12T13:45:48.644Z,18.80
2018-12-12T13:48:15.536Z,18.80
2018-12-12T13:50:41.764Z,18.80
2018-12-12T13:53:08.453Z,18.80
2018-12-12T13:55:35.036Z,18.80
2018-12-12T13:58:01.321Z,18.80
2018-12-12T14:00:27.544Z,18.90
2018-12-12T14:02:53.785Z,18.90
2018-12-12T14:05:20.009Z,18.90
2018-12-12T14:07:46.280Z,18.90
2018-12-12T14:10:12.522Z,18.90
2018-12-12T14:12:38.736Z,18.90
2018-12-12T14:15:06.082Z,18.90
2018-12-12T14:17:32.301Z,18.90
2018-12-12T14:19:59.292Z,18.90
2018-12-12T14:22:25.493Z,18.80
2018-12-12T14:24:51.752Z,18.80
2018-12-12T14:27:17.972Z,18.80
2018-12-12T14:29:44.806Z,18.80
2018-12-12T14:32:11.034Z,18.80
2018-12-12T14:34:37.303Z,18.80
2018-12-12T14:37:04.257Z,18.80
2018-12-12T14:39:31.017Z,18.80
2018-12-12T14:41:57.907Z,18.80
2018-12-12T14:44:24.419Z,18.80
2018-12-12T14:46:50.720Z,18.80
2018-12-12T14:49:16.997Z,18.80
2018-12-12T14:51:43.224Z,18.80
2018-12-12T14:54:09.564Z,18.80
2018-12-12T14:56:35.761Z,18.80
2018-12-12T14:59:02.005Z,18.80
2018-12-12T15:01:28.222Z,18.80
2018-12-12T15:03:55.031Z,18.90
2018-12-12T15:06:22.000Z,18.90
2018-12-12T15:08:48.908Z,18.90
2018-12-12T15:11:15.917Z,18.90
2018-12-12T15:13:42.108Z,18.90
2018-12-12T15:16:08.367Z,18.90
2018-12-12T15:18:35.295Z,18.90
2018-12-12T15:21:02.095Z,18.80
2018-12-12T15:23:28.305Z,18.90
2018-12-12T15:25:54.553Z,18.80
2018-12-12T15:28:21.396Z,18.90
2018-12-12T15:30:47.601Z,18.90
2018-12-12T15:33:13.811Z,18.80
2018-12-12T15:35:40.260Z,18.80
2018-12-12T15:38:07.453Z,18.80
2018-12-12T15:40:35.092Z,18.80
2018-12-12T15:43:01.454Z,18.80
2018-12-12T15:45:27.666Z,18.80
2018-12-12T15:47:54.216Z,18.80
2018-12-12T15:50:20.756Z,18.70
2018-12-12T15:52:47.962Z,18.80
2018-12-12T15:55:14.216Z,18.80
2018-12-12T15:57:40.878Z,18.80
2018-12-12T16:00:07.081Z,18.80
2018-12-12T16:02:34.132Z,18.80
2018-12-12T16:05:00.369Z,18.80
2018-12-12T16:07:28.084Z,18.80
2018-12-12T16:09:54.564Z,18.80
2018-12-12T16:12:20.770Z,18.80
2018-12-12T16:14:47.285Z,18.80
2018-12-12T16:17:13.915Z,18.80
2018-12-12T16:19:40.171Z,18.80
2018-12-12T16:22:06.373Z,18.80
2018-12-12T16:24:32.603Z,18.80
2018-12-12T16:26:59.404Z,18.80
2018-12-12T16:29:25.649Z,18.80
2018-12-12T16:31:51.853Z,18.80
2018-12-12T16:34:18.065Z,18.80
2018-12-12T16:36:44.297Z,18.80
2018-12-12T16:39:10.756Z,18.80
2018-12-12T16:41:36.997Z,18.80
2018-12-12T16:44:03.765Z,18.80
2018-12-12T16:46:30.013Z,18.80
2018-12-12T16:48:56.570Z,18.80
2018-12-12T16:51:22.810Z,18.80
2018-12-12T16:53:49.063Z,18.80
2018-12-12T16:56:15.265Z,18.70
2018-12-12T16:58:41.479Z,18.70
2018-12-12T17:01:08.836Z,18.70
2018-12-12T17:03:35.637Z,18.70
2018-12-12T17:06:02.163Z,18.80
2018-12-12T17:08:29.681Z,18.80
2018-12-12T17:10:56.479Z,18.80
2018-12-12T17:13:22.684Z,18.80
2018-12-12T17:15:48.890Z,18.80
2018-12-12T17:18:15.845Z,18.80
2018-12-12T17:20:42.382Z,18.80
2018-12-12T17:23:08.811Z,18.80
2018-12-12T17:25:35.022Z,18.80
2018-12-12T17:28:01.496Z,18.80
2018-12-12T17:30:27.717Z,18.80
2018-12-12T17:32:53.922Z,18.80
2018-12-12T17:35:20.579Z,18.80
2018-12-12T17:37:46.826Z,18.80
2018-12-12T17:40:13.249Z,18.80
2018-12-12T17:42:40.437Z,18.80
2018-12-12T17:45:06.931Z,18.70
2018-12-12T17:47:33.711Z,18.70
2018-12-12T17:50:00.905Z,18.70
2018-12-12T17:52:27.569Z,18.70
2018-12-12T17:54:53.793Z,18.70
2018-12-12T17:57:20.807Z,18.70
2018-12-12T17:59:47.423Z,18.70
2018-12-12T18:02:13.860Z,18.70
2018-12-12T18:04:40.445Z,18.70
2018-12-12T18:07:06.686Z,18.60
2018-12-12T18:09:32.972Z,18.60
2018-12-12T18:11:59.169Z,18.60
2018-12-12T18:14:25.413Z,18.70
2018-12-12T18:16:51.736Z,18.70
2018-12-12T18:19:18.363Z,18.70
2018-12-12T18:21:44.589Z,18.70
2018-12-12T18:24:10.800Z,18.70
2018-12-12T18:26:37.046Z,18.80
2018-12-12T18:29:04.034Z,18.80
2018-12-12T18:31:37.594Z,18.80
2018-12-12T18:34:06.148Z,18.80
2018-12-12T18:36:32.389Z,18.90
2018-12-12T18:38:58.600Z,18.80
2018-12-12T18:41:25.444Z,18.90
2018-12-12T18:43:52.416Z,18.80
2018-12-12T18:46:18.638Z,18.80
2018-12-12T18:48:44.944Z,18.80
2018-12-12T18:51:11.971Z,18.80
2018-12-12T18:53:38.827Z,18.80
2018-12-12T18:56:05.046Z,18.80
2018-12-12T18:58:31.622Z,18.80
2018-12-12T19:00:57.861Z,18.80
2018-12-12T19:03:24.138Z,18.80
2018-12-12T19:08:23.334Z,18.80
2018-12-12T19:10:50.379Z,18.80
2018-12-12T19:13:17.355Z,18.80
2018-12-12T19:15:43.636Z,18.80
2018-12-12T19:18:10.061Z,18.80
2018-12-12T19:20:37.230Z,18.80
2018-12-12T19:23:03.466Z,18.80
2018-12-12T19:25:29.917Z,18.80
2018-12-12T19:27:56.743Z,18.80
2018-12-12T19:30:23.792Z,18.80
2018-12-12T19:32:51.158Z,18.80
2018-12-12T19:35:17.657Z,18.80
2018-12-12T19:37:44.651Z,18.90
2018-12-12T19:40:11.264Z,18.90
2018-12-12T19:42:37.493Z,18.90
2018-12-12T19:45:03.960Z,18.90
2018-12-12T19:47:30.179Z,19.00
2018-12-12T19:49:57.044Z,19.00
2018-12-12T19:52:23.262Z,19.00
2018-12-12T19:54:49.581Z,19.00
2018-12-12T19:57:16.018Z,19.00
2018-12-12T19:59:42.582Z,18.90
2018-12-12T20:02:08.839Z,18.90
2018-12-12T20:04:35.051Z,18.90
2018-12-12T20:07:01.307Z,18.90
2018-12-12T20:09:29.067Z,18.90
2018-12-12T20:11:55.700Z,18.90
2018-12-12T20:14:21.928Z,18.90
2018-12-12T20:16:48.388Z,18.90
2018-12-12T20:19:14.925Z,18.90
2018-12-12T20:21:41.321Z,18.90
2018-12-12T20:24:07.554Z,18.90
2018-12-12T20:26:33.793Z,18.80
2018-12-12T20:29:00.017Z,18.80
2018-12-12T20:31:26.254Z,18.80
2018-12-12T20:33:52.460Z,18.80
2018-12-12T20:36:19.096Z,18.80
2018-12-12T20:38:45.322Z,18.80
2018-12-12T20:41:11.696Z,18.80
2018-12-12T20:43:37.942Z,18.80
2018-12-12T20:46:04.764Z,18.80
2018-12-12T20:48:30.994Z,18.80
2018-12-12T20:50:57.931Z,18.90
2018-12-12T20:53:24.148Z,18.90
2018-12-12T20:55:50.344Z,19.00
2018-12-12T20:58:16.542Z,19.00
2018-12-12T21:00:42.815Z,19.00
2018-12-12T21:03:09.017Z,19.00
2018-12-12T21:05:36.060Z,19.00
2018-12-12T21:08:02.281Z,19.00
2018-12-12T21:10:28.522Z,19.00
2018-12-12T21:12:54.728Z,18.90
2018-12-12T21:15:21.004Z,18.90
2018-12-12T21:17:47.256Z,18.90
2018-12-12T21:20:14.365Z,18.90
2018-12-12T21:22:40.634Z,18.90
2018-12-12T21:25:06.885Z,18.90
2018-12-12T21:27:33.504Z,18.90
2018-12-12T21:29:59.855Z,18.80
2018-12-12T21:32:26.116Z,18.80
2018-12-12T21:34:52.348Z,18.80
2018-12-12T21:37:18.776Z,18.80
2018-12-12T21:39:45.387Z,18.80
2018-12-12T21:42:12.035Z,18.80
2018-12-12T21:44:38.724Z,18.80
2018-12-12T21:47:04.977Z,18.70
2018-12-12T21:49:31.186Z,18.70
2018-12-12T21:51:57.429Z,18.70
2018-12-12T21:54:23.675Z,18.60
2018-12-12T21:56:50.153Z,18.70
2018-12-12T21:59:16.696Z,18.60
2018-12-12T22:01:42.909Z,18.70
2018-12-12T22:04:09.129Z,18.70
2018-12-12T22:06:35.363Z,18.70
2018-12-12T22:09:01.653Z,18.70
2018-12-12T22:11:27.887Z,18.70
2018-12-12T22:13:54.089Z,18.70
2018-12-12T22:16:20.644Z,18.70
2018-12-12T22:18:46.845Z,18.70
2018-12-12T22:21:13.108Z,18.80
2018-12-12T22:23:39.718Z,18.80
2018-12-12T22:26:05.964Z,18.70
2018-12-12T22:28:32.202Z,18.70
2018-12-12T22:30:58.401Z,18.70
2018-12-12T22:33:25.301Z,18.70
2018-12-12T22:35:52.116Z,18.70
2018-12-12T22:38:18.376Z,18.70
2018-12-12T22:40:45.404Z,18.70
2018-12-12T22:43:11.640Z,18.60
2018-12-12T22:45:37.881Z,18.60
2018-12-12T22:48:04.148Z,18.60
2018-12-12T22:50:31.034Z,18.60
2018-12-12T22:52:58.185Z,18.60
2018-12-12T22:55:24.387Z,18.60
2018-12-12T22:57:51.312Z,18.50
2018-12-12T23:00:17.884Z,18.60
2018-12-12T23:02:44.192Z,18.50
2018-12-12T23:05:10.466Z,18.50
2018-12-12T23:07:36.677Z,18.50
2018-12-12T23:10:03.033Z,18.50
2018-12-12T23:12:29.701Z,18.50
2018-12-12T23:14:56.241Z,18.50
2018-12-12T23:17:23.183Z,18.60
2018-12-12T23:19:49.413Z,18.60
2018-12-12T23:22:15.677Z,18.60
